Time;durP1;ratioP1;P1;durP2;ratioP2;P2;SDS_P1;SDS_P2;PMS_P1;PMS_P2;Temp;Humidity;BMP_temperature;BMP_pressure;BME280_temperature;BME280_humidity;BME280_pressure;Samples;Min_cycle;Max_cycle;Signal;HPM_P1;HPM_P2
2022/03/30 00:00:47;;;;;;;14.20;4.07;;;5.10;99.90;;;;;;5045188;28;20120;-73
2022/03/30 00:03:12;;;;;;;8.35;4.47;;;5.10;99.90;;;;;;5030093;28;20123;-73
2022/03/30 00:05:38;;;;;;;11.10;4.43;;;5.10;99.90;;;;;;5038131;28;20069;-73
2022/03/30 00:08:05;;;;;;;8.23;4.10;;;5.10;99.90;;;;;;5043733;28;20044;-73
2022/03/30 00:10:31;;;;;;;8.48;3.80;;;5.10;99.90;;;;;;5046709;28;20063;-73
2022/03/30 00:12:56;;;;;;;9.50;4.15;;;5.20;99.90;;;;;;5041471;28;20482;-73
2022/03/30 00:15:24;;;;;;;8.18;4.25;;;5.10;99.90;;;;;;5045671;28;20086;-73
2022/03/30 00:17:50;;;;;;;8.38;3.83;;;5.10;99.90;;;;;;5029486;28;20041;-73
2022/03/30 00:20:16;;;;;;;9.27;3.38;;;5.10;99.90;;;;;;5047484;28;20408;-73
2022/03/30 00:22:42;;;;;;;8.45;4.25;;;5.10;99.90;;;;;;5044335;28;20056;-73
2022/03/30 00:25:10;;;;;;;13.65;5.10;;;5.10;99.90;;;;;;5021891;28;20041;-73
2022/03/30 00:27:35;;;;;;;8.15;3.75;;;5.20;99.90;;;;;;5035644;28;20569;-73
2022/03/30 00:30:03;;;;;;;7.40;3.58;;;5.20;99.90;;;;;;5043518;28;20041;-73
2022/03/30 00:32:29;;;;;;;13.20;4.18;;;5.20;99.90;;;;;;5026991;28;20035;-73
2022/03/30 00:34:54;;;;;;;7.10;3.20;;;5.20;99.90;;;;;;5027277;28;20045;-73
2022/03/30 00:37:20;;;;;;;8.23;4.10;;;5.20;99.90;;;;;;5015253;28;20045;-73
2022/03/30 00:39:45;;;;;;;10.25;4.63;;;5.20;99.90;;;;;;5045638;28;20418;-73
2022/03/30 00:42:19;;;;;;;7.72;2.92;;;5.10;99.90;;;;;;5060583;28;20470;-73
2022/03/30 00:44:48;;;;;;;12.10;4.13;;;5.10;99.90;;;;;;5057604;28;20509;-73
2022/03/30 00:47:16;;;;;;;7.53;3.40;;;5.10;99.90;;;;;;5029868;28;20037;-73
2022/03/30 00:49:42;;;;;;;9.45;4.03;;;5.00;99.90;;;;;;5063248;28;20072;-73
2022/03/30 00:52:08;;;;;;;6.93;3.10;;;5.00;99.90;;;;;;5045464;28;20402;-73
2022/03/30 00:54:34;;;;;;;9.88;3.90;;;4.90;99.90;;;;;;5041177;28;20059;-73
2022/03/30 00:57:01;;;;;;;8.73;3.70;;;5.00;99.90;;;;;;5034692;28;20711;-73
2022/03/30 00:59:27;;;;;;;9.75;3.97;;;5.00;99.90;;;;;;5033620;28;20037;-73
2022/03/30 01:01:52;;;;;;;10.10;3.75;;;5.00;99.90;;;;;;5032378;28;20451;-73
2022/03/30 01:04:18;;;;;;;9.48;3.30;;;4.90;99.90;;;;;;5050095;28;20045;-73
2022/03/30 01:06:45;;;;;;;8.23;3.25;;;5.00;99.90;;;;;;5046214;28;20044;-73
2022/03/30 01:09:10;;;;;;;7.47;3.95;;;5.00;99.90;;;;;;5039361;28;20072;-73
2022/03/30 01:11:36;;;;;;;6.88;3.63;;;5.00;99.90;;;;;;5037714;28;20040;-73
2022/03/30 01:14:02;;;;;;;6.95;3.42;;;4.90;99.90;;;;;;5049168;28;20556;-73
2022/03/30 01:16:29;;;;;;;9.93;4.25;;;5.00;99.90;;;;;;5048732;28;20036;-73
2022/03/30 01:19:05;;;;;;;12.82;4.28;;;5.00;99.90;;;;;;5043602;28;20052;-73
2022/03/30 01:21:31;;;;;;;7.68;3.70;;;5.00;99.90;;;;;;5050319;28;20041;-73
2022/03/30 01:23:57;;;;;;;6.93;3.30;;;5.00;99.90;;;;;;5032294;28;20043;-73
2022/03/30 01:26:23;;;;;;;9.25;4.50;;;5.00;99.90;;;;;;5043919;28;20036;-73
2022/03/30 01:28:49;;;;;;;7.30;3.47;;;5.00;99.90;;;;;;5049035;28;20502;-73
2022/03/30 01:33:59;;;;;;;9.35;3.25;;;5.00;99.90;;;;;;5036576;28;20337;-73
2022/03/30 01:36:25;;;;;;;6.18;3.53;;;5.00;99.90;;;;;;5046735;28;20491;-73
2022/03/30 01:38:51;;;;;;;10.60;3.60;;;4.90;99.90;;;;;;5049015;28;20082;-73
2022/03/30 01:41:17;;;;;;;8.43;4.00;;;4.90;99.90;;;;;;5047975;28;20037;-73
2022/03/30 01:43:42;;;;;;;9.05;3.28;;;4.90;99.90;;;;;;5050054;28;20122;-73
2022/03/30 01:46:08;;;;;;;9.45;3.60;;;4.90;99.90;;;;;;5062513;28;20106;-73
2022/03/30 01:48:33;;;;;;;8.90;4.10;;;4.90;99.90;;;;;;5059083;28;20037;-73
2022/03/30 01:50:59;;;;;;;9.55;3.92;;;4.90;99.90;;;;;;5044409;28;20041;-73
2022/03/30 01:53:25;;;;;;;8.90;3.35;;;4.90;99.90;;;;;;5044622;28;20041;-73
2022/03/30 01:55:51;;;;;;;8.90;3.83;;;4.90;99.90;;;;;;5042927;28;20107;-73
2022/03/30 01:58:17;;;;;;;8.07;4.00;;;4.90;99.90;;;;;;5047981;28;20459;-73
2022/03/30 02:00:43;;;;;;;10.00;4.10;;;4.90;99.90;;;;;;5043242;28;20052;-73
2022/03/30 02:03:09;;;;;;;9.45;4.22;;;5.00;99.90;;;;;;5065500;28;20045;-73
2022/03/30 02:05:34;;;;;;;6.57;2.58;;;5.00;99.90;;;;;;5045317;28;20045;-73
2022/03/30 02:08:00;;;;;;;12.25;5.15;;;5.00;99.90;;;;;;5066016;28;20087;-73
2022/03/30 02:10:28;;;;;;;10.07;4.45;;;5.00;99.90;;;;;;5030726;28;20045;-73
2022/03/30 02:12:53;;;;;;;8.57;4.15;;;5.10;99.90;;;;;;5049691;28;20055;-73
2022/03/30 02:15:19;;;;;;;12.10;4.82;;;5.10;99.90;;;;;;5053488;28;20041;-73
2022/03/30 02:17:45;;;;;;;10.00;3.65;;;5.10;99.90;;;;;;5062385;28;20078;-73
2022/03/30 02:20:13;;;;;;;7.18;3.45;;;5.20;99.90;;;;;;5039823;28;20043;-73
2022/03/30 02:22:39;;;;;;;10.43;4.35;;;5.20;99.90;;;;;;5064358;28;20056;-73
2022/03/30 02:25:05;;;;;;;9.93;4.45;;;5.20;99.90;;;;;;5063906;28;20044;-73
2022/03/30 02:27:32;;;;;;;11.77;4.55;;;5.20;99.90;;;;;;5049236;28;20049;-73
2022/03/30 02:29:58;;;;;;;10.25;4.53;;;5.20;99.90;;;;;;5030611;28;20044;-73
2022/03/30 02:32:23;;;;;;;8.68;3.83;;;5.20;99.90;;;;;;5044378;28;20033;-73
2022/03/30 02:34:49;;;;;;;12.02;3.72;;;5.20;99.90;;;;;;5050127;28;20068;-73
2022/03/30 02:37:16;;;;;;;9.02;3.70;;;5.20;99.90;;;;;;5029442;28;20487;-73
2022/03/30 02:39:42;;;;;;;12.30;4.05;;;5.20;99.90;;;;;;5030570;28;20124;-73
2022/03/30 02:42:08;;;;;;;10.20;4.82;;;5.20;99.90;;;;;;5061148;28;20115;-73
2022/03/30 02:44:37;;;;;;;7.95;4.03;;;5.30;99.90;;;;;;5048202;28;20785;-73
2022/03/30 02:47:04;;;;;;;11.60;3.72;;;5.30;99.90;;;;;;5048771;28;20077;-73
2022/03/30 02:49:30;;;;;;;9.75;3.63;;;5.30;99.90;;;;;;5031136;28;20037;-73
2022/03/30 02:51:56;;;;;;;8.95;4.43;;;5.30;99.90;;;;;;5055876;28;20115;-73
2022/03/30 02:54:24;;;;;;;10.02;3.47;;;5.30;99.90;;;;;;5031737;28;20049;-73
2022/03/30 02:56:49;;;;;;;8.77;3.33;;;5.40;99.90;;;;;;5063602;28;20102;-73
2022/03/30 02:59:15;;;;;;;6.57;3.03;;;5.40;99.90;;;;;;5043722;28;20510;-74
2022/03/30 03:01:41;;;;;;;13.95;4.75;;;5.30;99.90;;;;;;5061213;28;20052;-73
2022/03/30 03:04:06;;;;;;;8.35;4.18;;;5.30;99.90;;;;;;5045895;28;20090;-73
2022/03/30 03:06:32;;;;;;;10.82;3.88;;;5.30;99.90;;;;;;5035527;28;20049;-73
2022/03/30 03:08:58;;;;;;;6.70;3.35;;;5.40;99.90;;;;;;5029080;28;20044;-73
2022/03/30 03:11:24;;;;;;;10.07;3.78;;;5.40;99.90;;;;;;5039599;28;20124;-73
2022/03/30 03:13:51;;;;;;;7.95;3.65;;;5.40;99.90;;;;;;5031757;28;20037;-73
2022/03/30 03:16:18;;;;;;;7.72;4.25;;;5.40;99.90;;;;;;5028203;28;20098;-73
2022/03/30 03:18:44;;;;;;;7.68;3.10;;;5.40;99.90;;;;;;5022050;28;20079;-73
2022/03/30 03:21:09;;;;;;;10.48;4.63;;;5.40;99.90;;;;;;5042847;28;20045;-73
2022/03/30 03:23:35;;;;;;;8.57;4.60;;;5.40;99.90;;;;;;5047926;28;20409;-73
2022/03/30 03:26:01;;;;;;;11.43;4.38;;;5.30;99.90;;;;;;5027220;28;20069;-73
2022/03/30 03:28:26;;;;;;;13.48;4.22;;;5.40;99.90;;;;;;5027814;28;20045;-73
2022/03/30 03:30:52;;;;;;;8.70;3.25;;;5.30;99.90;;;;;;5040508;28;20037;-73
2022/03/30 03:33:18;;;;;;;10.70;3.88;;;5.20;99.90;;;;;;5047155;28;20120;-73
2022/03/30 03:35:44;;;;;;;10.90;4.38;;;5.30;99.90;;;;;;5045087;28;20076;-73
2022/03/30 03:38:09;;;;;;;7.20;3.95;;;5.30;99.90;;;;;;5038144;28;20045;-73
2022/03/30 03:40:36;;;;;;;16.27;4.70;;;5.30;99.90;;;;;;5045675;28;20490;-73
2022/03/30 03:43:03;;;;;;;10.48;4.57;;;5.30;99.90;;;;;;5039719;28;20045;-73
2022/03/30 03:45:29;;;;;;;13.52;4.68;;;5.30;99.90;;;;;;5044059;28;20076;-73
2022/03/30 03:47:55;;;;;;;8.63;4.10;;;5.30;99.90;;;;;;5045377;28;20045;-73
2022/03/30 03:50:21;;;;;;;8.65;3.28;;;5.30;99.90;;;;;;5048150;28;20415;-73
2022/03/30 03:52:47;;;;;;;12.18;4.60;;;5.30;99.90;;;;;;5022978;28;20037;-73
2022/03/30 03:55:12;;;;;;;10.77;4.63;;;5.30;99.90;;;;;;5031065;28;20527;-73
2022/03/30 03:57:39;;;;;;;8.65;3.53;;;5.30;99.90;;;;;;5036235;28;20103;-73
2022/03/30 04:00:06;;;;;;;12.93;4.97;;;5.30;99.90;;;;;;5026986;28;20168;-73
2022/03/30 04:02:31;;;;;;;9.70;4.03;;;5.30;99.90;;;;;;5036418;28;20080;-73
2022/03/30 04:04:57;;;;;;;7.63;3.63;;;5.30;99.90;;;;;;5030735;28;20068;-73
2022/03/30 04:07:23;;;;;;;8.25;3.70;;;5.30;99.90;;;;;;5011238;28;20037;-73
2022/03/30 04:09:49;;;;;;;11.10;3.58;;;5.40;99.90;;;;;;5061088;28;20076;-73
2022/03/30 04:12:14;;;;;;;8.23;4.00;;;5.40;99.90;;;;;;5046546;28;20040;-73
2022/03/30 04:14:40;;;;;;;8.90;3.35;;;5.40;99.90;;;;;;5044315;28;20033;-73
2022/03/30 04:17:05;;;;;;;6.40;3.40;;;5.40;99.90;;;;;;5046030;28;20123;-73
2022/03/30 04:19:31;;;;;;;10.75;3.30;;;5.40;99.90;;;;;;5025576;28;20041;-73
2022/03/30 04:21:56;;;;;;;7.80;3.67;;;5.40;99.90;;;;;;5027287;28;20052;-73
2022/03/30 04:24:22;;;;;;;13.82;3.17;;;5.40;99.90;;;;;;5036594;28;20048;-73
2022/03/30 04:26:48;;;;;;;15.02;5.15;;;5.40;99.90;;;;;;5029030;28;20041;-73
2022/03/30 04:29:13;;;;;;;11.05;4.07;;;5.40;99.90;;;;;;5043563;28;20036;-73
2022/03/30 04:31:39;;;;;;;8.95;3.50;;;5.40;99.90;;;;;;5032190;28;20040;-73
2022/03/30 04:34:04;;;;;;;8.25;3.28;;;5.40;99.90;;;;;;5020550;28;20091;-73
2022/03/30 04:36:30;;;;;;;11.45;4.57;;;5.40;99.90;;;;;;5041462;28;20044;-73
2022/03/30 04:38:56;;;;;;;6.55;3.13;;;5.40;99.90;;;;;;5043652;28;20063;-73
2022/03/30 04:41:23;;;;;;;7.65;3.20;;;5.40;99.90;;;;;;5046122;28;20075;-73
2022/03/30 04:43:49;;;;;;;9.13;4.43;;;5.40;99.90;;;;;;5063636;28;20041;-73
2022/03/30 04:46:15;;;;;;;8.30;3.53;;;5.40;99.90;;;;;;5028796;28;20048;-74
2022/03/30 04:48:40;;;;;;;4.88;2.42;;;5.50;99.90;;;;;;5040670;28;20040;-73
2022/03/30 04:51:06;;;;;;;9.93;3.05;;;5.50;99.90;;;;;;5045788;28;20044;-73
2022/03/30 04:53:32;;;;;;;4.10;2.47;;;5.50;99.90;;;;;;5043094;28;20044;-73
2022/03/30 04:55:58;;;;;;;6.30;2.63;;;5.50;99.90;;;;;;5045732;28;20123;-73
2022/03/30 04:58:24;;;;;;;17.05;3.50;;;5.50;99.90;;;;;;5045765;28;20041;-73
2022/03/30 05:00:49;;;;;;;12.90;3.53;;;5.60;99.90;;;;;;5043150;28;20040;-73
2022/03/30 05:03:15;;;;;;;8.52;2.85;;;5.60;99.90;;;;;;5044982;28;20090;-73
2022/03/30 05:05:41;;;;;;;6.63;2.80;;;5.60;99.90;;;;;;5063370;28;20041;-73
2022/03/30 05:08:06;;;;;;;5.32;2.13;;;5.60;99.90;;;;;;5046254;28;20037;-73
2022/03/30 05:10:32;;;;;;;4.97;2.70;;;5.60;99.90;;;;;;5042641;28;20716;-73
2022/03/30 05:12:59;;;;;;;3.78;1.98;;;5.60;99.90;;;;;;5051610;28;20033;-73
2022/03/30 05:15:28;;;;;;;3.45;1.88;;;5.60;99.90;;;;;;5037401;28;20112;-73
2022/03/30 05:17:54;;;;;;;4.72;2.17;;;5.60;99.90;;;;;;5028677;28;20547;-73
2022/03/30 05:20:20;;;;;;;2.80;1.73;;;5.60;99.90;;;;;;5045967;28;20084;-73
2022/03/30 05:22:46;;;;;;;2.90;1.27;;;5.60;99.90;;;;;;5052366;28;20053;-73
2022/03/30 05:25:14;;;;;;;3.58;1.38;;;5.60;99.90;;;;;;5045622;28;20044;-73
2022/03/30 05:27:40;;;;;;;1.67;0.80;;;5.60;99.90;;;;;;5043795;28;20091;-73
2022/03/30 05:30:07;;;;;;;2.03;1.00;;;5.60;99.90;;;;;;5045626;28;20080;-73
2022/03/30 05:32:32;;;;;;;1.52;0.70;;;5.60;99.90;;;;;;5039524;28;20033;-73
2022/03/30 05:34:58;;;;;;;1.63;0.85;;;5.60;99.90;;;;;;5040175;28;20037;-73
2022/03/30 05:37:24;;;;;;;0.95;0.60;;;5.60;99.90;;;;;;5062253;28;20135;-74
2022/03/30 05:39:50;;;;;;;1.73;0.90;;;5.60;99.90;;;;;;5045820;28;20052;-74
2022/03/30 05:42:16;;;;;;;1.45;0.85;;;5.50;99.90;;;;;;5042985;28;20045;-74
2022/03/30 05:44:42;;;;;;;1.75;0.73;;;5.60;99.90;;;;;;5048036;28;20497;-74
2022/03/30 05:47:09;;;;;;;2.28;0.57;;;5.60;99.90;;;;;;5039314;28;20045;-74
2022/03/30 05:49:37;;;;;;;1.30;0.52;;;5.60;99.90;;;;;;5040059;28;20142;-74
2022/03/30 05:52:05;;;;;;;2.13;0.93;;;5.60;99.90;;;;;;5038624;28;20048;-74
2022/03/30 05:54:30;;;;;;;1.52;0.50;;;5.60;99.90;;;;;;5063196;28;20057;-74
2022/03/30 05:57:02;;;;;;;1.55;0.47;;;5.60;99.90;;;;;;5064805;28;20083;-74
2022/03/30 05:59:39;;;;;;;1.33;0.70;;;5.60;99.90;;;;;;5027372;28;20029;-74
2022/03/30 06:02:08;;;;;;;1.35;0.40;;;5.50;99.90;;;;;;5032515;28;20094;-73
2022/03/30 06:04:34;;;;;;;1.15;0.55;;;5.50;99.90;;;;;;5058853;28;20627;-73
2022/03/30 06:07:00;;;;;;;0.98;0.57;;;5.50;99.90;;;;;;5043076;28;20052;-74
2022/03/30 06:09:27;;;;;;;1.38;0.45;;;5.50;99.90;;;;;;5026253;28;20033;-74
2022/03/30 06:11:53;;;;;;;0.98;0.50;;;5.50;99.90;;;;;;5029728;28;20542;-74
2022/03/30 06:14:20;;;;;;;1.80;0.60;;;5.50;99.90;;;;;;5029003;28;20160;-75
2022/03/30 06:16:45;;;;;;;1.98;0.50;;;5.50;99.90;;;;;;5044501;28;20044;-74
2022/03/30 06:19:12;;;;;;;0.95;0.50;;;5.50;99.90;;;;;;5034240;28;20032;-74
2022/03/30 06:21:38;;;;;;;1.42;0.60;;;5.50;99.90;;;;;;5062685;28;20091;-74
2022/03/30 06:24:04;;;;;;;1.38;0.43;;;5.50;99.90;;;;;;5042616;28;20037;-74
2022/03/30 06:26:30;;;;;;;0.45;0.20;;;5.50;99.90;;;;;;5048758;28;20055;-74
2022/03/30 06:28:56;;;;;;;0.52;0.30;;;5.50;99.90;;;;;;5047538;28;20072;-74
2022/03/30 06:31:22;;;;;;;2.67;0.52;;;5.50;99.90;;;;;;5042628;28;20090;-74
2022/03/30 06:33:48;;;;;;;0.35;0.20;;;5.50;99.90;;;;;;5054238;28;20079;-74
2022/03/30 06:36:15;;;;;;;0.38;0.25;;;5.50;99.90;;;;;;5046084;28;20036;-74
2022/03/30 06:38:44;;;;;;;0.57;0.30;;;5.50;99.90;;;;;;5062159;28;20033;-73
2022/03/30 06:41:12;;;;;;;0.80;0.30;;;5.50;99.90;;;;;;5029965;28;20049;-73
2022/03/30 06:43:42;;;;;;;1.13;0.45;;;5.50;99.90;;;;;;5045502;28;20087;-73
2022/03/30 06:46:09;;;;;;;0.93;0.30;;;5.50;99.90;;;;;;5041504;28;20372;-73
2022/03/30 06:48:35;;;;;;;0.73;0.30;;;5.60;99.90;;;;;;5046086;28;20576;-73
2022/03/30 06:51:01;;;;;;;0.95;0.40;;;5.60;99.90;;;;;;5029753;28;20039;-73
2022/03/30 06:53:26;;;;;;;0.30;0.30;;;5.60;99.90;;;;;;5030711;28;20044;-73
2022/03/30 06:55:52;;;;;;;1.15;0.70;;;5.70;99.90;;;;;;5050260;28;20482;-73
2022/03/30 06:58:18;;;;;;;1.38;0.57;;;5.70;99.90;;;;;;5035007;28;20487;-73
2022/03/30 07:00:43;;;;;;;1.40;0.70;;;5.70;99.90;;;;;;5053394;28;20459;-74
2022/03/30 07:03:09;;;;;;;1.00;0.57;;;5.70;99.90;;;;;;5032637;28;20491;-73
2022/03/30 07:05:35;;;;;;;0.55;0.32;;;5.70;99.90;;;;;;5052423;28;20049;-73
2022/03/30 07:10:45;;;;;;;1.00;0.45;;;5.80;99.90;;;;;;5031805;28;20069;-73
2022/03/30 07:13:10;;;;;;;0.75;0.40;;;5.80;99.90;;;;;;5048125;28;20068;-73
2022/03/30 07:15:38;;;;;;;1.70;0.55;;;5.90;99.90;;;;;;5031554;28;20038;-74
2022/03/30 07:18:06;;;;;;;2.22;1.00;;;5.90;99.90;;;;;;5033319;28;20048;-73
2022/03/30 07:20:31;;;;;;;1.20;0.55;;;6.00;99.90;;;;;;5029931;28;20421;-73
2022/03/30 07:23:00;;;;;;;0.68;0.40;;;6.00;99.90;;;;;;5032421;28;20136;-73
2022/03/30 07:25:26;;;;;;;0.75;0.45;;;6.00;99.90;;;;;;5034966;28;21949;-73
2022/03/30 07:27:54;;;;;;;1.67;0.93;;;6.00;99.90;;;;;;5025401;28;20068;-73
2022/03/30 07:30:21;;;;;;;1.17;0.60;;;6.00;99.90;;;;;;5037708;28;20497;-73
2022/03/30 07:32:49;;;;;;;1.15;0.45;;;6.10;99.90;;;;;;5023501;28;20037;-73
2022/03/30 07:35:17;;;;;;;4.95;0.73;;;6.10;99.90;;;;;;5019890;28;20040;-73
2022/03/30 07:37:44;;;;;;;1.05;0.60;;;6.10;99.90;;;;;;5033098;28;20545;-73
2022/03/30 07:40:12;;;;;;;1.27;1.02;;;6.20;99.90;;;;;;5038690;28;20045;-73
2022/03/30 07:42:39;;;;;;;0.95;0.40;;;6.20;99.90;;;;;;5028996;28;20043;-73
2022/03/30 07:45:05;;;;;;;0.88;0.38;;;6.20;99.90;;;;;;5031887;28;20706;-73
2022/03/30 07:47:31;;;;;;;0.80;0.40;;;6.20;99.90;;;;;;5033790;28;20414;-73
2022/03/30 07:49:58;;;;;;;0.25;0.22;;;6.20;99.90;;;;;;5050359;28;20087;-74
2022/03/30 07:52:24;;;;;;;0.55;0.32;;;6.20;99.90;;;;;;5035095;28;20096;-73
2022/03/30 07:54:50;;;;;;;4.65;0.40;;;6.20;99.90;;;;;;5021165;28;20527;-73
2022/03/30 07:57:15;;;;;;;2.90;0.73;;;6.20;99.90;;;;;;5050039;28;20045;-73
2022/03/30 07:59:41;;;;;;;1.73;0.50;;;6.20;99.90;;;;;;5035042;28;20115;-73
2022/03/30 08:02:08;;;;;;;1.83;0.63;;;6.20;99.90;;;;;;5020266;28;20037;-73
2022/03/30 08:04:33;;;;;;;1.15;0.50;;;6.20;99.90;;;;;;5036179;28;20072;-73
2022/03/30 08:06:59;;;;;;;2.10;0.95;;;6.20;99.90;;;;;;5051167;28;20601;-73
2022/03/30 08:09:25;;;;;;;7.78;0.82;;;6.20;99.90;;;;;;5035431;28;20045;-73
2022/03/30 08:11:52;;;;;;;1.05;0.50;;;6.30;99.90;;;;;;5049281;28;20037;-73
2022/03/30 08:14:18;;;;;;;1.83;0.63;;;6.30;99.90;;;;;;5031311;28;20034;-73
2022/03/30 08:16:44;;;;;;;1.20;0.60;;;6.40;99.90;;;;;;5029584;28;20103;-73
2022/03/30 08:19:09;;;;;;;1.27;0.80;;;6.40;99.90;;;;;;5029876;28;20041;-73
2022/03/30 08:24:21;;;;;;;1.30;0.80;;;6.50;99.90;;;;;;5031271;28;20123;-73
2022/03/30 08:26:47;;;;;;;1.92;0.60;;;6.60;99.90;;;;;;5044351;28;20589;-73
2022/03/30 08:29:12;;;;;;;2.92;0.88;;;6.60;99.90;;;;;;5054379;28;20171;-73
2022/03/30 08:31:38;;;;;;;2.05;1.00;;;6.60;99.90;;;;;;5027813;28;20052;-73
2022/03/30 08:34:03;;;;;;;2.45;0.50;;;6.60;99.90;;;;;;5038050;28;20037;-74
2022/03/30 08:36:29;;;;;;;4.53;0.70;;;6.70;99.90;;;;;;5022063;28;20033;-73
2022/03/30 08:38:59;;;;;;;0.82;0.60;;;6.70;99.90;;;;;;5031737;28;20407;-73
2022/03/30 08:41:25;;;;;;;1.52;0.77;;;6.70;99.90;;;;;;5036654;28;20409;-73
2022/03/30 08:43:52;;;;;;;6.68;1.27;;;6.60;99.90;;;;;;5062689;28;20041;-73
2022/03/30 08:46:18;;;;;;;2.80;0.88;;;6.60;99.90;;;;;;5029991;28;20399;-73
2022/03/30 08:48:44;;;;;;;3.67;0.77;;;6.60;99.90;;;;;;5033373;28;20033;-73
2022/03/30 08:51:11;;;;;;;1.20;0.45;;;6.60;99.90;;;;;;5034172;28;20117;-73
2022/03/30 08:53:37;;;;;;;2.03;0.93;;;6.60;99.90;;;;;;5014119;28;20048;-73
2022/03/30 08:56:04;;;;;;;1.48;0.82;;;6.60;99.90;;;;;;5026317;28;20033;-74
2022/03/30 08:58:30;;;;;;;1.08;0.68;;;6.60;99.90;;;;;;5022842;28;20144;-73
2022/03/30 09:01:12;;;;;;;0.20;0.20;;;6.70;99.90;;;;;;5011158;28;20556;-73
2022/03/30 09:03:58;;;;;;;1.90;0.50;;;6.70;99.90;;;;;;5030215;28;20049;-73
2022/03/30 09:06:33;;;;;;;;;;;6.80;99.90;;;;;;5041409;28;20033;-73
2022/03/30 09:08:59;;;;;;;1.50;0.38;;;6.80;99.90;;;;;;5049310;28;19924;-72
2022/03/30 09:11:30;;;;;;;1.67;0.35;;;6.80;99.90;;;;;;5030965;28;20042;-73
2022/03/30 09:14:01;;;;;;;0.80;0.30;;;6.80;99.90;;;;;;5027736;28;20033;-72
2022/03/30 09:16:40;;;;;;;0.80;0.40;;;6.90;99.90;;;;;;5052375;28;20045;-70
2022/03/30 09:19:08;;;;;;;0.35;0.20;;;6.90;99.90;;;;;;5031403;28;20520;-70
2022/03/30 09:21:48;;;;;;;0.45;0.40;;;6.90;99.90;;;;;;5031322;28;20072;-70
2022/03/30 09:24:17;;;;;;;0.93;0.50;;;6.90;99.90;;;;;;5041995;28;20093;-70
2022/03/30 09:26:43;;;;;;;0.57;0.30;;;6.90;99.90;;;;;;5036257;28;20435;-70
2022/03/30 09:29:10;;;;;;;0.30;0.20;;;6.90;99.90;;;;;;5037460;28;20043;-73
2022/03/30 09:31:38;;;;;;;0.40;0.25;;;6.80;99.90;;;;;;5021681;28;20033;-71
2022/03/30 09:34:07;;;;;;;1.35;0.47;;;6.80;99.90;;;;;;5046371;28;20045;-70
2022/03/30 09:36:39;;;;;;;0.50;0.40;;;6.70;99.90;;;;;;5052358;28;20033;-70
2022/03/30 09:39:06;;;;;;;0.30;0.20;;;6.70;99.90;;;;;;5037520;28;20585;-70
2022/03/30 09:41:52;;;;;;;1.27;0.50;;;6.60;99.90;;;;;;5032277;28;20037;-70
2022/03/30 09:44:17;;;;;;;;;;;6.60;99.90;;;;;;5023960;28;20098;-70
2022/03/30 09:46:58;;;;;;;0.75;0.50;;;6.50;99.90;;;;;;5037368;28;19929;-70
2022/03/30 09:49:40;;;;;;;0.68;0.40;;;6.60;99.90;;;;;;5050333;28;20064;-73
2022/03/30 09:52:13;;;;;;;0.52;0.40;;;6.60;99.90;;;;;;5033286;28;20045;-73
2022/03/30 09:54:44;;;;;;;1.30;0.60;;;6.60;99.90;;;;;;5029635;28;20055;-73
2022/03/30 09:57:23;;;;;;;1.17;0.30;;;6.60;99.90;;;;;;5058178;28;20394;-72
2022/03/30 10:00:08;;;;;;;0.85;0.43;;;6.60;99.90;;;;;;5053616;28;20870;-73
2022/03/30 10:02:40;;;;;;;1.80;0.68;;;6.60;99.90;;;;;;5050811;28;20048;-73
2022/03/30 10:05:08;;;;;;;0.38;0.30;;;6.60;99.90;;;;;;5036803;28;20047;-73
2022/03/30 10:07:34;;;;;;;0.40;0.30;;;6.60;99.90;;;;;;5035553;28;20096;-73
2022/03/30 10:10:01;;;;;;;0.50;0.22;;;6.70;99.90;;;;;;5043676;28;20200;-73
2022/03/30 10:12:27;;;;;;;0.73;0.35;;;6.70;99.90;;;;;;5037939;28;20068;-73
2022/03/30 10:14:54;;;;;;;1.65;0.50;;;6.90;99.90;;;;;;5033581;28;20033;-73
2022/03/30 10:17:22;;;;;;;1.50;0.60;;;6.90;99.90;;;;;;5040842;28;20041;-73
2022/03/30 10:19:49;;;;;;;1.63;0.63;;;7.00;99.90;;;;;;5038155;28;20106;-73
2022/03/30 10:22:43;;;;;;;1.75;0.47;;;7.00;99.90;;;;;;5021413;28;20088;-73
2022/03/30 10:25:17;;;;;;;2.53;0.57;;;7.10;99.90;;;;;;5036534;28;20048;-73
2022/03/30 10:27:53;;;;;;;0.60;0.35;;;7.20;99.90;;;;;;5050002;28;20048;-73
2022/03/30 10:30:29;;;;;;;1.83;0.40;;;7.20;99.90;;;;;;5037139;28;20102;-71
2022/03/30 10:33:00;;;;;;;1.90;0.60;;;7.20;99.90;;;;;;5036606;28;20393;-71
2022/03/30 10:35:43;;;;;;;0.30;0.20;;;7.30;99.90;;;;;;5018408;28;20076;-71
2022/03/30 10:38:10;;;;;;;1.25;0.47;;;7.20;99.90;;;;;;5036045;28;20281;-71
2022/03/30 10:40:36;;;;;;;0.57;0.30;;;7.30;99.90;;;;;;5038808;28;20394;-70
2022/03/30 10:43:07;;;;;;;1.88;0.50;;;7.30;99.90;;;;;;5051575;28;20092;-71
2022/03/30 10:45:44;;;;;;;0.55;0.40;;;7.30;99.90;;;;;;5036028;28;20156;-71
2022/03/30 10:48:29;;;;;;;0.82;0.30;;;7.30;99.90;;;;;;5034213;28;20048;-70
2022/03/30 10:50:57;;;;;;;1.15;0.63;;;7.30;99.90;;;;;;5039551;28;20053;-70
2022/03/30 10:53:34;;;;;;;1.30;0.40;;;7.30;99.90;;;;;;5036573;28;20033;-70
2022/03/30 10:56:15;;;;;;;1.30;0.50;;;7.30;99.90;;;;;;5050968;28;20483;-70
2022/03/30 10:58:53;;;;;;;2.40;0.40;;;7.30;99.90;;;;;;5046189;28;20049;-71
2022/03/30 11:01:25;;;;;;;1.17;0.35;;;7.30;99.90;;;;;;5027340;28;20103;-70
2022/03/30 11:03:59;;;;;;;0.82;0.45;;;7.20;99.90;;;;;;5034067;28;20078;-70
2022/03/30 11:06:26;;;;;;;5.75;0.50;;;7.30;99.90;;;;;;5019695;28;20079;-70
2022/03/30 11:08:51;;;;;;;1.88;0.35;;;7.30;99.90;;;;;;5031214;28;20453;-70
2022/03/30 11:11:39;;;;;;;0.60;0.40;;;7.30;99.90;;;;;;5050923;28;20502;-70
2022/03/30 11:14:26;;;;;;;0.73;0.50;;;7.40;99.90;;;;;;5045446;28;20483;-70
2022/03/30 11:17:02;;;;;;;1.38;0.52;;;7.50;99.90;;;;;;5038540;28;20510;-70
2022/03/30 11:19:51;;;;;;;1.65;0.30;;;7.50;99.90;;;;;;5034796;28;20042;-70
2022/03/30 11:22:22;;;;;;;0.63;0.47;;;7.50;99.40;;;;;;5054609;28;20048;-70
2022/03/30 11:25:10;;;;;;;1.55;0.60;;;7.60;99.90;;;;;;5030477;28;20045;-70
2022/03/30 11:27:37;;;;;;;1.17;0.60;;;7.60;99.90;;;;;;5027317;28;20034;-70
2022/03/30 11:30:09;;;;;;;0.52;0.50;;;7.60;99.90;;;;;;5031457;28;20116;-70
2022/03/30 11:32:44;;;;;;;0.85;0.40;;;7.70;99.90;;;;;;5027651;28;20065;-71
2022/03/30 11:35:17;;;;;;;0.95;0.50;;;7.70;96.70;;;;;;5028952;28;20045;-70
2022/03/30 11:37:49;;;;;;;2.75;0.68;;;7.70;96.70;;;;;;5034289;28;20045;-70
2022/03/30 11:40:20;;;;;;;5.18;0.57;;;7.70;97.60;;;;;;5033333;28;20396;-71
2022/03/30 11:42:48;;;;;;;1.83;0.43;;;7.70;99.00;;;;;;5055869;28;20104;-70
2022/03/30 11:45:19;;;;;;;0.70;0.28;;;7.70;99.20;;;;;;5045820;28;20036;-70
2022/03/30 11:47:53;;;;;;;1.20;0.43;;;7.80;98.10;;;;;;5050971;28;20136;-73
2022/03/30 11:50:34;;;;;;;2.92;0.40;;;7.70;97.30;;;;;;5032744;28;20043;-73
2022/03/30 11:53:06;;;;;;;0.45;0.28;;;7.70;97.50;;;;;;5028437;28;20380;-73
2022/03/30 11:55:56;;;;;;;0.80;0.30;;;7.70;96.40;;;;;;5036855;28;20036;-73
2022/03/30 11:58:39;;;;;;;0.47;0.30;;;7.70;98.30;;;;;;5048872;28;20037;-73
2022/03/30 12:01:08;;;;;;;0.43;0.30;;;7.60;97.20;;;;;;5049076;28;20118;-73
2022/03/30 12:03:35;;;;;;;0.10;0.08;;;7.60;98.40;;;;;;5044560;28;20044;-73
2022/03/30 12:06:03;;;;;;;0.60;0.45;;;7.60;98.60;;;;;;5031442;28;20056;-73
2022/03/30 12:08:38;;;;;;;1.52;0.32;;;7.60;96.70;;;;;;5034663;28;20086;-73
2022/03/30 12:11:06;;;;;;;0.98;0.20;;;7.60;98.60;;;;;;5026910;28;20372;-73
2022/03/30 12:13:32;;;;;;;0.70;0.65;;;7.50;98.50;;;;;;5037438;28;20044;-73
2022/03/30 12:16:05;;;;;;;1.00;0.35;;;7.60;98.40;;;;;;5032173;28;20037;-73
2022/03/30 12:18:31;;;;;;;1.38;0.70;;;7.50;97.20;;;;;;5047197;28;20137;-73
2022/03/30 12:21:03;;;;;;;2.17;0.93;;;7.50;97.90;;;;;;5029587;28;20538;-73
2022/03/30 12:23:29;;;;;;;6.10;1.52;;;7.50;97.30;;;;;;5032299;28;20074;-73
2022/03/30 12:25:55;;;;;;;0.68;0.40;;;7.50;97.60;;;;;;5038357;28;20040;-72
2022/03/30 12:28:31;;;;;;;0.30;0.25;;;7.40;96.70;;;;;;5035032;28;20033;-73
2022/03/30 12:30:57;;;;;;;0.88;0.43;;;7.40;95.80;;;;;;5035386;28;20044;-73
2022/03/30 12:33:23;;;;;;;0.70;0.50;;;7.40;97.40;;;;;;5027273;28;20041;-73
2022/03/30 12:35:52;;;;;;;0.25;0.15;;;7.40;97.60;;;;;;5033389;28;20421;-73
2022/03/30 12:38:20;;;;;;;0.88;0.38;;;7.30;97.10;;;;;;5047618;28;20041;-73
2022/03/30 12:40:52;;;;;;;0.50;0.32;;;7.40;97.60;;;;;;5034523;28;20168;-73
2022/03/30 12:43:24;;;;;;;2.08;0.55;;;7.30;96.70;;;;;;5036525;28;20044;-73
2022/03/30 12:45:54;;;;;;;1.48;0.38;;;7.40;96.70;;;;;;5036547;28;20041;-73
2022/03/30 12:48:29;;;;;;;4.80;0.50;;;7.40;97.20;;;;;;5026200;28;20042;-73
2022/03/30 12:50:59;;;;;;;0.90;0.38;;;7.40;96.20;;;;;;5054643;28;20040;-73
2022/03/30 12:53:33;;;;;;;1.10;0.60;;;7.50;96.20;;;;;;5011371;28;20777;-73
2022/03/30 12:56:17;;;;;;;2.80;1.00;;;7.50;95.60;;;;;;5013779;28;20065;-73
2022/03/30 12:58:58;;;;;;;0.90;0.40;;;7.50;95.30;;;;;;5057287;28;20045;-73
2022/03/30 13:01:32;;;;;;;1.17;0.50;;;7.50;96.10;;;;;;5038106;28;20488;-73
2022/03/30 13:03:58;;;;;;;0.17;0.17;;;7.60;95.90;;;;;;5049732;28;20051;-71
2022/03/30 13:06:25;;;;;;;0.47;0.30;;;7.60;95.90;;;;;;5030809;28;20345;-70
2022/03/30 13:09:18;;;;;;;0.90;0.30;;;7.50;95.40;;;;;;5033074;28;20519;-70